createdAt,value
2022-09-12T00:00:26.205Z,72853.88
2022-09-12T00:01:09.221Z,72853.88
2022-09-12T00:01:41.530Z,72845.91
2022-09-12T00:02:13.856Z,72849.88
2022-09-12T00:02:48.710Z,72849.88
2022-09-12T00:03:20.953Z,72853.88
2022-09-12T00:03:56.843Z,72849.88
2022-09-12T00:04:29.053Z,72849.88
2022-09-12T00:05:01.262Z,72849.88
2022-09-12T00:05:33.529Z,72849.88
2022-09-12T00:06:19.266Z,72841.91
2022-09-12T00:06:54.717Z,72845.91
2022-09-12T00:07:26.954Z,72841.91
2022-09-12T00:08:01.890Z,72841.91
2022-09-12T00:08:34.125Z,72845.91
2022-09-12T00:09:10.897Z,72839.91
2022-09-12T00:09:43.190Z,72845.91
2022-09-12T00:10:15.696Z,72843.91
2022-09-12T00:10:47.893Z,72843.91
2022-09-12T00:11:22.829Z,72843.91
2022-09-12T00:11:55.057Z,72845.91
2022-09-12T00:12:27.273Z,72845.91
2022-09-12T00:13:02.086Z,72841.91
2022-09-12T00:13:37.318Z,72843.91
2022-09-12T00:14:15.145Z,72845.91
2022-09-12T00:14:49.953Z,72845.91
2022-09-12T00:15:22.277Z,72845.91
2022-09-12T00:15:54.490Z,72841.91
2022-09-12T00:16:31.827Z,72845.91
2022-09-12T00:17:04.209Z,72845.91
2022-09-12T00:17:36.934Z,72849.88
2022-09-12T00:18:12.945Z,72849.88
2022-09-12T00:18:47.080Z,72849.88
2022-09-12T00:19:22.174Z,72845.91
2022-09-12T00:19:54.430Z,72847.88
2022-09-12T00:20:26.629Z,72847.88
2022-09-12T00:21:02.676Z,72847.88
2022-09-12T00:21:41.889Z,72849.88
2022-09-12T00:22:14.114Z,72849.88
2022-09-12T00:22:46.313Z,72851.88
2022-09-12T00:23:18.588Z,72855.88
2022-09-12T00:23:53.901Z,72847.88
2022-09-12T00:24:26.126Z,72849.88
2022-09-12T00:24:58.329Z,72845.91
2022-09-12T00:25:31.369Z,72849.88
2022-09-12T00:26:07.497Z,72851.88
2022-09-12T00:26:39.725Z,72847.88
2022-09-12T00:27:11.944Z,72849.88
2022-09-12T00:27:46.750Z,72849.88
2022-09-12T00:28:19.303Z,72849.88
2022-09-12T00:28:51.818Z,72847.88
2022-09-12T00:29:26.661Z,72849.88
2022-09-12T00:29:58.853Z,72849.88
2022-09-12T00:30:31.082Z,72845.91
2022-09-12T00:31:05.506Z,72845.91
2022-09-12T00:31:40.383Z,72847.88
2022-09-12T00:32:12.647Z,72843.91
2022-09-12T00:32:45.170Z,72845.91
2022-09-12T00:33:21.039Z,72841.91
2022-09-12T00:33:55.482Z,72839.91
2022-09-12T00:34:27.742Z,72835.91
2022-09-12T00:35:02.918Z,72837.91
2022-09-12T00:35:35.389Z,72833.91
2022-09-12T00:36:09.616Z,72833.91
2022-09-12T00:36:47.254Z,72835.91
2022-09-12T00:37:19.461Z,72837.91
2022-09-12T00:37:51.762Z,72833.91
2022-09-12T00:38:23.986Z,72833.91
2022-09-12T00:38:58.945Z,72833.91
2022-09-12T00:39:31.194Z,72833.91
2022-09-12T00:40:03.986Z,72833.91
2022-09-12T00:40:38.889Z,72825.94
2022-09-12T00:41:16.154Z,72829.94
2022-09-12T00:41:48.385Z,72823.94
2022-09-12T00:42:23.287Z,72823.94
2022-09-12T00:42:55.573Z,72821.94
2022-09-12T00:43:38.457Z,72819.94
2022-09-12T00:44:57.829Z,72817.94
2022-09-12T00:45:31.379Z,72811.97
2022-09-12T00:46:07.398Z,72813.97
2022-09-12T00:46:45.337Z,72815.97
2022-09-12T00:47:20.981Z,72813.97
2022-09-12T00:47:53.623Z,72813.97
2022-09-12T00:48:34.939Z,72813.97
2022-09-12T00:49:13.033Z,72813.97
2022-09-12T00:49:47.886Z,72817.94
2022-09-12T00:50:22.930Z,72809.97
2022-09-12T00:50:55.147Z,72813.97
2022-09-12T00:51:28.082Z,72815.97
2022-09-12T00:52:09.930Z,72803.97
2022-09-12T00:52:45.248Z,72809.97
2022-09-12T00:53:18.365Z,72809.97
2022-09-12T00:53:54.835Z,72805.97
2022-09-12T00:54:31.256Z,72805.97
2022-09-12T00:55:06.953Z,72801.97
2022-09-12T00:55:44.136Z,72803.97
2022-09-12T00:56:18.444Z,72805.97
2022-09-12T00:56:52.437Z,72809.97
2022-09-12T00:57:32.314Z,72801.97
2022-09-12T00:58:07.005Z,72798.00
2022-09-12T00:58:42.258Z,72801.97
2022-09-12T00:59:19.529Z,72798.00
2022-09-12T00:59:54.419Z,72800.00
2022-09-12T01:00:28.329Z,72798.00
2022-09-12T01:01:00.944Z,72798.00
2022-09-12T01:01:36.697Z,72796.00
2022-09-12T01:02:09.255Z,72798.00
2022-09-12T01:02:41.998Z,72800.00
2022-09-12T01:03:16.858Z,72796.00
2022-09-12T01:03:51.793Z,72798.00
2022-09-12T01:04:26.187Z,72794.00
2022-09-12T01:04:58.549Z,72798.00
2022-09-12T01:05:34.960Z,72796.00
2022-09-12T01:06:13.574Z,72796.00
2022-09-12T01:06:46.713Z,72794.00
2022-09-12T01:07:24.425Z,72801.97
2022-09-12T01:07:57.529Z,72798.00
2022-09-12T01:08:30.119Z,72798.00
2022-09-12T01:09:07.091Z,72798.00
2022-09-12T01:09:39.840Z,72794.00
2022-09-12T01:10:12.057Z,72792.00
2022-09-12T01:10:47.223Z,72794.00
2022-09-12T01:11:20.345Z,72800.00
2022-09-12T01:11:53.554Z,72796.00
2022-09-12T01:12:29.570Z,72794.00
2022-09-12T01:13:01.961Z,72794.00
2022-09-12T01:13:35.107Z,72801.97
2022-09-12T01:14:10.470Z,72801.97
2022-09-12T01:14:43.133Z,72798.00
2022-09-12T01:15:15.474Z,72801.97
2022-09-12T01:15:50.355Z,72798.00
2022-09-12T01:16:22.647Z,72798.00
2022-09-12T01:16:54.881Z,72794.00
2022-09-12T01:17:33.866Z,72796.00
2022-09-12T01:18:13.681Z,72792.00
2022-09-12T01:18:54.206Z,72792.00
2022-09-12T01:19:58.653Z,72794.00
2022-09-12T01:20:50.990Z,72796.00
2022-09-12T01:21:37.398Z,72794.00
2022-09-12T01:22:25.688Z,72794.00
2022-09-12T01:23:38.499Z,72790.00
2022-09-12T01:24:48.874Z,72794.00
2022-09-12T01:25:28.820Z,72792.00
2022-09-12T01:26:16.241Z,72792.00
2022-09-12T01:27:01.472Z,72794.00
2022-09-12T01:27:59.377Z,72796.00
2022-09-12T01:28:48.906Z,72790.00
2022-09-12T01:29:37.269Z,72794.00
2022-09-12T01:30:51.661Z,72794.00
2022-09-12T01:31:30.024Z,72794.00
2022-09-12T01:32:07.511Z,72792.00
2022-09-12T01:32:51.854Z,72794.00
2022-09-12T01:33:36.693Z,72794.00
2022-09-12T01:34:14.796Z,72794.00
2022-09-12T01:34:53.113Z,72792.00
2022-09-12T01:35:28.422Z,72794.00
2022-09-12T01:36:36.813Z,72794.00
2022-09-12T01:37:15.587Z,72790.00
2022-09-12T01:37:54.739Z,72794.00
2022-09-12T01:38:36.386Z,72794.00
2022-09-12T01:39:14.637Z,72794.00
2022-09-12T01:39:54.211Z,72790.00
2022-09-12T01:40:31.587Z,72792.00
2022-09-12T01:41:09.906Z,72794.00
2022-09-12T01:41:53.136Z,72792.00
2022-09-12T01:42:31.589Z,72790.00
2022-09-12T01:43:09.877Z,72786.00
2022-09-12T01:43:48.457Z,72790.00
2022-09-12T01:44:26.617Z,72790.00
2022-09-12T01:45:03.703Z,72786.00
2022-09-12T01:45:43.326Z,72786.00
2022-09-12T01:46:17.933Z,72786.00
2022-09-12T01:46:55.918Z,72786.00
2022-09-12T01:47:34.559Z,72786.00
2022-09-12T01:48:11.998Z,72790.00
2022-09-12T01:48:46.999Z,72786.00
2022-09-12T01:49:22.471Z,72786.00
2022-09-12T01:50:00.908Z,72786.00
2022-09-12T01:50:36.092Z,72786.00
2022-09-12T01:51:11.848Z,72782.03
2022-09-12T01:51:54.814Z,72782.03
2022-09-12T01:52:31.833Z,72782.03
2022-09-12T01:53:08.317Z,72782.03
2022-09-12T01:53:45.178Z,72790.00
2022-09-12T01:54:20.852Z,72786.00
2022-09-12T01:54:56.360Z,72784.03
2022-09-12T01:55:34.262Z,72780.03
2022-09-12T01:56:09.990Z,72784.03
2022-09-12T01:56:43.589Z,72786.00
2022-09-12T01:57:23.118Z,72786.00
2022-09-12T01:58:01.109Z,72778.03
2022-09-12T01:58:36.764Z,72786.00
2022-09-12T01:59:11.617Z,72782.03
2022-09-12T01:59:50.667Z,72780.03
2022-09-12T02:00:22.916Z,72786.00
2022-09-12T02:01:04.395Z,72780.03
2022-09-12T02:01:42.118Z,72786.00
2022-09-12T02:02:19.886Z,72782.03
2022-09-12T02:02:58.093Z,72780.03
2022-09-12T02:03:33.114Z,72786.00
2022-09-12T02:04:09.346Z,72782.03
2022-09-12T02:04:48.846Z,72778.03
2022-09-12T02:05:24.145Z,72786.00
2022-09-12T02:05:58.681Z,72782.03
2022-09-12T02:06:36.118Z,72778.03
2022-09-12T02:07:13.754Z,72780.03
2022-09-12T02:07:48.617Z,72782.03
2022-09-12T02:08:26.890Z,72782.03
2022-09-12T02:09:02.345Z,72782.03
2022-09-12T02:09:37.368Z,72778.03
2022-09-12T02:10:17.105Z,72782.03
2022-09-12T02:10:55.681Z,72784.03
2022-09-12T02:11:30.021Z,72778.03
2022-09-12T02:12:04.962Z,72780.03
2022-09-12T02:12:43.502Z,72782.03
2022-09-12T02:13:20.433Z,72782.03
2022-09-12T02:13:55.781Z,72778.03
2022-09-12T02:14:33.333Z,72778.03
2022-09-12T02:15:09.415Z,72778.03
2022-09-12T02:15:45.180Z,72780.03
2022-09-12T02:16:21.989Z,72774.03
2022-09-12T02:16:57.214Z,72778.03
2022-09-12T02:17:35.695Z,72774.03
2022-09-12T02:18:11.526Z,72778.03
2022-09-12T02:18:46.291Z,72774.03
2022-09-12T02:19:23.970Z,72780.03
2022-09-12T02:20:03.076Z,72780.03
2022-09-12T02:20:47.886Z,72778.03
2022-09-12T02:21:25.768Z,72772.03
2022-09-12T02:21:59.998Z,72778.03
2022-09-12T02:22:32.380Z,72780.03
2022-09-12T02:23:09.411Z,72778.03
2022-09-12T02:23:45.022Z,72778.03
2022-09-12T02:24:18.085Z,72774.03
2022-09-12T02:24:54.774Z,72778.03
2022-09-12T02:25:31.269Z,72782.03
2022-09-12T02:26:08.446Z,72778.03
2022-09-12T02:26:44.754Z,72780.03
2022-09-12T02:27:21.681Z,72782.03
2022-09-12T02:27:55.547Z,72776.03
2022-09-12T02:28:30.706Z,72778.03
2022-09-12T02:29:06.777Z,72778.03
2022-09-12T02:29:39.099Z,72782.03
2022-09-12T02:30:14.489Z,72774.03
2022-09-12T02:30:55.879Z,72778.03
2022-09-12T02:31:30.039Z,72780.03
2022-09-12T02:32:05.948Z,72774.03
2022-09-12T02:32:47.293Z,72774.03
2022-09-12T02:33:26.785Z,72778.03
2022-09-12T02:34:10.124Z,72774.03
2022-09-12T02:34:49.633Z,72776.03
2022-09-12T02:35:31.264Z,72774.03
2022-09-12T02:36:07.898Z,72774.03
2022-09-12T02:36:49.838Z,72778.03
2022-09-12T02:37:26.017Z,72774.03
2022-09-12T02:38:01.280Z,72778.03
2022-09-12T02:38:40.711Z,72774.03
2022-09-12T02:39:13.050Z,72774.03
2022-09-12T02:39:47.993Z,72778.03
2022-09-12T02:40:20.403Z,72778.03
2022-09-12T02:40:52.838Z,72774.03
2022-09-12T02:41:27.905Z,72778.03
2022-09-12T02:42:01.212Z,72778.03
2022-09-12T02:42:33.494Z,72774.03
2022-09-12T02:43:09.058Z,72776.03
2022-09-12T02:43:41.310Z,72778.03
2022-09-12T02:44:13.693Z,72776.03
2022-09-12T02:44:48.505Z,72774.03
2022-09-12T02:45:22.920Z,72774.03
2022-09-12T02:45:55.236Z,72774.03
2022-09-12T02:46:31.875Z,72774.03
2022-09-12T02:47:06.644Z,72778.03
2022-09-12T02:47:45.271Z,72780.03
2022-09-12T02:48:23.375Z,72778.03
2022-09-12T02:48:55.914Z,72778.03
2022-09-12T02:49:28.335Z,72774.03
2022-09-12T02:50:05.229Z,72774.03
2022-09-12T02:50:37.955Z,72780.03
2022-09-12T02:51:10.862Z,72778.03
2022-09-12T02:51:45.900Z,72778.03
2022-09-12T02:52:18.341Z,72780.03
2022-09-12T02:52:51.131Z,72780.03
2022-09-12T02:53:26.125Z,72782.03
2022-09-12T02:53:58.497Z,72774.03
2022-09-12T02:54:30.968Z,72778.03
2022-09-12T02:55:08.014Z,72776.03
2022-09-12T02:55:41.881Z,72776.03
2022-09-12T02:56:19.323Z,72778.03
2022-09-12T02:56:54.585Z,72772.03
2022-09-12T02:57:27.136Z,72778.03
2022-09-12T02:57:59.904Z,72778.03
2022-09-12T02:58:32.766Z,72772.03
2022-09-12T02:59:10.082Z,72774.03
2022-09-12T02:59:42.643Z,72778.03
2022-09-12T03:00:15.590Z,72778.03
2022-09-12T03:00:53.725Z,72774.03
2022-09-12T03:01:36.840Z,72774.03
2022-09-12T03:02:21.663Z,72768.06
2022-09-12T03:03:22.330Z,72774.03
2022-09-12T03:04:11.394Z,72770.06
2022-09-12T03:05:00.894Z,72770.06
2022-09-12T03:05:38.281Z,72774.03
2022-09-12T03:06:17.613Z,72772.03
2022-09-12T03:06:54.554Z,72770.06
2022-09-12T03:07:38.881Z,72772.03
2022-09-12T03:08:24.143Z,72774.03
2022-09-12T03:09:06.237Z,72774.03
2022-09-12T03:09:44.697Z,72770.06
2022-09-12T03:10:25.146Z,72776.03
2022-09-12T03:11:18.502Z,72774.03
2022-09-12T03:12:02.541Z,72770.06
2022-09-12T03:12:46.399Z,72774.03
2022-09-12T03:13:25.633Z,72772.03
2022-09-12T03:14:07.009Z,72774.03
2022-09-12T03:15:01.696Z,72778.03
2022-09-12T03:15:46.425Z,72774.03
2022-09-12T03:16:26.856Z,72770.06
2022-09-12T03:17:08.476Z,72774.03
2022-09-12T03:17:50.068Z,72770.06
2022-09-12T03:18:34.479Z,72770.06
2022-09-12T03:19:16.038Z,72770.06
2022-09-12T03:19:54.640Z,72768.06
2022-09-12T03:20:38.356Z,72766.06
2022-09-12T03:21:16.952Z,72772.03
2022-09-12T03:21:56.849Z,72776.03
2022-09-12T03:22:31.974Z,72770.06
2022-09-12T03:23:11.270Z,72770.06
2022-09-12T03:23:47.838Z,72770.06
2022-09-12T03:24:24.793Z,72772.03
2022-09-12T03:25:07.581Z,72772.03
2022-09-12T03:25:44.301Z,72770.06
2022-09-12T03:26:19.320Z,72770.06
2022-09-12T03:26:58.398Z,72770.06
2022-09-12T03:27:34.038Z,72774.03
2022-09-12T03:28:08.315Z,72772.03
2022-09-12T03:28:44.113Z,72772.03
2022-09-12T03:29:17.512Z,72766.06
2022-09-12T03:29:51.071Z,72770.06
2022-09-12T03:30:26.171Z,72776.03
2022-09-12T03:30:59.711Z,72774.03
2022-09-12T03:31:32.013Z,72770.06
2022-09-12T03:32:07.578Z,72770.06
2022-09-12T03:32:47.557Z,72774.03
2022-09-12T03:33:21.245Z,72778.03
2022-09-12T03:33:58.674Z,72774.03
2022-09-12T03:34:30.974Z,72778.03
2022-09-12T03:35:03.385Z,72774.03
2022-09-12T03:35:35.596Z,72778.03
2022-09-12T03:36:16.006Z,72782.03
2022-09-12T03:36:48.777Z,72782.03
2022-09-12T03:37:21.006Z,72782.03
2022-09-12T03:37:56.172Z,72778.03
2022-09-12T03:38:28.417Z,72782.03
2022-09-12T03:39:00.612Z,72782.03
2022-09-12T03:39:35.458Z,72786.00
2022-09-12T03:40:09.316Z,72782.03
2022-09-12T03:40:41.859Z,72784.03
2022-09-12T03:41:16.722Z,72782.03
2022-09-12T03:41:48.922Z,72784.03
2022-09-12T03:42:21.125Z,72780.03
2022-09-12T03:42:56.061Z,72784.03
2022-09-12T03:43:28.257Z,72782.03
2022-09-12T03:44:00.462Z,72782.03
2022-09-12T03:44:35.301Z,72780.03
2022-09-12T03:45:08.951Z,72782.03
2022-09-12T03:45:41.221Z,72782.03
2022-09-12T03:46:16.373Z,72782.03
2022-09-12T03:46:48.724Z,72786.00
2022-09-12T03:47:20.926Z,72782.03
2022-09-12T03:47:55.736Z,72782.03
2022-09-12T03:48:28.002Z,72778.03
2022-09-12T03:49:02.808Z,72778.03
2022-09-12T03:49:37.619Z,72782.03
2022-09-12T03:50:10.070Z,72778.03
2022-09-12T03:50:42.365Z,72784.03
2022-09-12T03:51:17.170Z,72782.03
2022-09-12T03:51:49.403Z,72780.03
2022-09-12T03:52:21.605Z,72782.03
2022-09-12T03:52:56.466Z,72782.03
2022-09-12T03:53:29.129Z,72778.03
2022-09-12T03:54:01.321Z,72778.03
2022-09-12T03:54:36.121Z,72774.03
2022-09-12T03:55:08.749Z,72782.03
2022-09-12T03:55:40.966Z,72778.03
2022-09-12T03:56:16.196Z,72782.03
2022-09-12T03:56:48.389Z,72778.03
2022-09-12T03:57:20.593Z,72782.03
2022-09-12T03:57:55.963Z,72782.03
2022-09-12T03:58:31.291Z,72784.03
2022-09-12T03:59:08.178Z,72782.03
2022-09-12T03:59:40.393Z,72786.00
2022-09-12T04:00:17.691Z,72786.00
2022-09-12T04:00:54.605Z,72778.03
2022-09-12T04:01:27.068Z,72782.03
2022-09-12T04:01:59.344Z,72782.03
2022-09-12T04:02:34.229Z,72782.03
2022-09-12T04:03:06.446Z,72782.03
2022-09-12T04:03:40.050Z,72778.03
2022-09-12T04:04:17.485Z,72778.03
2022-09-12T04:04:49.747Z,72782.03
2022-09-12T04:05:21.977Z,72778.03
2022-09-12T04:05:54.210Z,72780.03
2022-09-12T04:06:29.883Z,72782.03
2022-09-12T04:07:02.081Z,72780.03
2022-09-12T04:07:34.297Z,72782.03
2022-09-12T04:08:09.143Z,72784.03
2022-09-12T04:08:42.424Z,72780.03
2022-09-12T04:09:14.629Z,72780.03
2022-09-12T04:09:49.475Z,72782.03
2022-09-12T04:10:22.724Z,72780.03
2022-09-12T04:10:54.954Z,72780.03
2022-09-12T04:11:27.190Z,72778.03
2022-09-12T04:12:02.007Z,72782.03
2022-09-12T04:12:35.666Z,72778.03
2022-09-12T04:13:08.085Z,72778.03
2022-09-12T04:13:44.061Z,72778.03
2022-09-12T04:14:16.354Z,72782.03
2022-09-12T04:14:48.641Z,72780.03
2022-09-12T04:15:23.521Z,72776.03
2022-09-12T04:15:59.327Z,72774.03
2022-09-12T04:16:32.426Z,72778.03
2022-09-12T04:17:07.481Z,72774.03
2022-09-12T04:17:39.703Z,72774.03
2022-09-12T04:18:11.934Z,72778.03
2022-09-12T04:18:47.015Z,72774.03
2022-09-12T04:19:21.917Z,72778.03
2022-09-12T04:19:54.144Z,72774.03
2022-09-12T04:20:28.949Z,72778.03
2022-09-12T04:21:04.725Z,72782.03
2022-09-12T04:21:36.936Z,72782.03
2022-09-12T04:22:11.737Z,72782.03
2022-09-12T04:22:43.944Z,72782.03
2022-09-12T04:23:16.173Z,72782.03
2022-09-12T04:23:51.286Z,72780.03
2022-09-12T04:24:23.506Z,72782.03
2022-09-12T04:24:55.734Z,72782.03
2022-09-12T04:25:31.538Z,72786.00
2022-09-12T04:26:06.586Z,72786.00
2022-09-12T04:26:38.794Z,72784.03
2022-09-12T04:27:13.599Z,72782.03
2022-09-12T04:27:45.807Z,72786.00
2022-09-12T04:28:18.015Z,72786.00
2022-09-12T04:28:57.833Z,72786.00
2022-09-12T04:29:31.557Z,72786.00
2022-09-12T04:30:04.429Z,72788.00
2022-09-12T04:30:36.685Z,72786.00
2022-09-12T04:31:15.710Z,72788.00
2022-09-12T04:31:48.195Z,72786.00
2022-09-12T04:32:20.438Z,72786.00
2022-09-12T04:32:55.240Z,72786.00
2022-09-12T04:33:27.438Z,72782.03
2022-09-12T04:34:01.246Z,72782.03
2022-09-12T04:34:39.285Z,72782.03
2022-09-12T04:35:12.962Z,72784.03
2022-09-12T04:35:45.594Z,72780.03
2022-09-12T04:36:18.436Z,72778.03
2022-09-12T04:36:53.320Z,72782.03
2022-09-12T04:37:25.545Z,72778.03
2022-09-12T04:37:57.775Z,72780.03
2022-09-12T04:38:32.573Z,72786.00
2022-09-12T04:39:07.852Z,72786.00
2022-09-12T04:39:42.751Z,72786.00
2022-09-12T04:40:15.262Z,72782.03
2022-09-12T04:40:47.794Z,72782.03
2022-09-12T04:41:25.236Z,72784.03
2022-09-12T04:41:57.458Z,72786.00
2022-09-12T04:42:30.385Z,72786.00
2022-09-12T04:43:08.460Z,72786.00
2022-09-12T04:43:43.805Z,72786.00
2022-09-12T04:44:16.865Z,72792.00
2022-09-12T04:44:52.149Z,72786.00
2022-09-12T04:45:24.355Z,72782.03
2022-09-12T04:45:56.645Z,72786.00
2022-09-12T04:46:32.646Z,72786.00
2022-09-12T04:47:05.050Z,72786.00
2022-09-12T04:47:37.268Z,72790.00
2022-09-12T04:48:12.074Z,72786.00
2022-09-12T04:48:44.427Z,72786.00
2022-09-12T04:49:17.564Z,72790.00
2022-09-12T04:49:54.977Z,72794.00
2022-09-12T04:50:27.419Z,72788.00
2022-09-12T04:51:07.656Z,72788.00
2022-09-12T04:51:43.682Z,72788.00
2022-09-12T04:52:15.890Z,72786.00
2022-09-12T04:52:50.106Z,72788.00
2022-09-12T04:53:24.908Z,72788.00
2022-09-12T04:53:58.555Z,72786.00
2022-09-12T04:54:33.758Z,72782.03
2022-09-12T04:55:07.360Z,72788.00
2022-09-12T04:55:39.581Z,72782.03
2022-09-12T04:56:14.679Z,72786.00
2022-09-12T04:56:48.854Z,72786.00
2022-09-12T04:57:21.187Z,72786.00
2022-09-12T04:57:56.010Z,72786.00
2022-09-12T04:58:28.208Z,72786.00
2022-09-12T04:59:01.219Z,72786.00
2022-09-12T04:59:36.014Z,72786.00
2022-09-12T05:00:13.789Z,72784.03
2022-09-12T05:00:45.985Z,72786.00
2022-09-12T05:01:22.521Z,72782.03
2022-09-12T05:01:54.843Z,72782.03
2022-09-12T05:02:27.369Z,72782.03
2022-09-12T05:03:02.190Z,72782.03
2022-09-12T05:03:35.061Z,72788.00
2022-09-12T05:04:07.328Z,72784.03
2022-09-12T05:04:42.150Z,72790.00
2022-09-12T05:05:17.499Z,72788.00
2022-09-12T05:05:52.241Z,72788.00
2022-09-12T05:06:31.791Z,72784.03
2022-09-12T05:07:04.276Z,72790.00
2022-09-12T05:07:36.790Z,72786.00
2022-09-12T05:08:11.729Z,72788.00
2022-09-12T05:08:44.208Z,72784.03
2022-09-12T05:09:16.627Z,72788.00
2022-09-12T05:09:51.440Z,72790.00
2022-09-12T05:10:24.024Z,72786.00
2022-09-12T05:10:56.378Z,72790.00
2022-09-12T05:11:52.989Z,72790.00
2022-09-12T05:12:25.176Z,72790.00
2022-09-12T05:12:59.965Z,72788.00
2022-09-12T05:13:32.612Z,72790.00
2022-09-12T05:14:04.817Z,72792.00
2022-09-12T05:14:40.717Z,72790.00
2022-09-12T05:15:12.937Z,72792.00
2022-09-12T05:15:54.855Z,72794.00
2022-09-12T05:16:31.375Z,72788.00
2022-09-12T05:17:06.129Z,72790.00
2022-09-12T05:17:40.967Z,72794.00
2022-09-12T05:18:13.165Z,72796.00
2022-09-12T05:18:46.542Z,72794.00
2022-09-12T05:19:21.730Z,72798.00
2022-09-12T05:19:53.929Z,72794.00
2022-09-12T05:20:28.873Z,72794.00
2022-09-12T05:21:04.598Z,72792.00
2022-09-12T05:21:36.841Z,72794.00
2022-09-12T05:22:11.715Z,72794.00
2022-09-12T05:22:43.910Z,72794.00
2022-09-12T05:23:16.198Z,72794.00
2022-09-12T05:23:54.360Z,72790.00
2022-09-12T05:24:26.997Z,72794.00
2022-09-12T05:24:59.195Z,72794.00
2022-09-12T05:25:34.441Z,72790.00
2022-09-12T05:26:07.687Z,72794.00
2022-09-12T05:26:39.933Z,72798.00
2022-09-12T05:27:14.734Z,72796.00
2022-09-12T05:27:50.416Z,72794.00
2022-09-12T05:28:23.573Z,72798.00
2022-09-12T05:28:58.735Z,72798.00
2022-09-12T05:29:31.210Z,72798.00
2022-09-12T05:30:03.685Z,72798.00
2022-09-12T05:30:38.502Z,72800.00
2022-09-12T05:31:12.921Z,72801.97
2022-09-12T05:31:45.137Z,72805.97
2022-09-12T05:32:19.947Z,72798.00
2022-09-12T05:32:52.149Z,72803.97
2022-09-12T05:33:25.190Z,72801.97
2022-09-12T05:34:00.161Z,72800.00
2022-09-12T05:34:32.362Z,72801.97
2022-09-12T05:35:05.282Z,72801.97
2022-09-12T05:35:43.212Z,72801.97
2022-09-12T05:36:17.952Z,72801.97
2022-09-12T05:36:50.266Z,72801.97
2022-09-12T05:37:25.070Z,72800.00
2022-09-12T05:37:57.280Z,72809.97
2022-09-12T05:38:29.491Z,72801.97
2022-09-12T05:39:04.710Z,72803.97
2022-09-12T05:39:37.016Z,72801.97
2022-09-12T05:40:10.253Z,72800.00
2022-09-12T05:40:45.073Z,72807.97
2022-09-12T05:41:23.009Z,72811.97
2022-09-12T05:41:59.578Z,72809.97
2022-09-12T05:42:31.810Z,72811.97
2022-09-12T05:43:04.967Z,72803.97
2022-09-12T05:43:41.493Z,72807.97
2022-09-12T05:44:14.616Z,72805.97
2022-09-12T05:44:46.818Z,72809.97
2022-09-12T05:45:21.605Z,72811.97
2022-09-12T05:45:53.818Z,72805.97
2022-09-12T05:46:28.666Z,72807.97
2022-09-12T05:47:03.554Z,72809.97
2022-09-12T05:47:35.774Z,72809.97
2022-09-12T05:48:08.082Z,72809.97
2022-09-12T05:48:41.412Z,72809.97
2022-09-12T05:49:16.888Z,72809.97
2022-09-12T05:49:51.573Z,72813.97
2022-09-12T05:50:23.773Z,72807.97
2022-09-12T05:51:06.893Z,72809.97
2022-09-12T05:51:41.558Z,72811.97
2022-09-12T05:52:16.374Z,72813.97
2022-09-12T05:52:48.608Z,72809.97
2022-09-12T05:53:20.817Z,72815.97
2022-09-12T05:53:58.017Z,72817.94
2022-09-12T05:54:31.728Z,72817.94
2022-09-12T05:55:04.746Z,72817.94
2022-09-12T05:55:41.964Z,72819.94
2022-09-12T05:56:16.406Z,72817.94
2022-09-12T05:56:51.938Z,72819.94
2022-09-12T05:57:24.352Z,72819.94
2022-09-12T05:57:56.553Z,72821.94
2022-09-12T05:58:31.534Z,72817.94
2022-09-12T05:59:05.417Z,72821.94
2022-09-12T05:59:40.326Z,72819.94
2022-09-12T06:00:15.030Z,72821.94
2022-09-12T06:00:48.586Z,72823.94
2022-09-12T06:01:23.511Z,72821.94
2022-09-12T06:01:55.842Z,72819.94
2022-09-12T06:02:28.129Z,72821.94
2022-09-12T06:03:02.965Z,72825.94
2022-09-12T06:03:35.877Z,72821.94
2022-09-12T06:04:08.473Z,72819.94
2022-09-12T06:04:43.802Z,72813.97
2022-09-12T06:05:16.207Z,72815.97
2022-09-12T06:05:50.633Z,72821.94
2022-09-12T06:06:28.474Z,72821.94
2022-09-12T06:07:00.741Z,72821.94
2022-09-12T06:07:32.990Z,72813.97
2022-09-12T06:08:07.877Z,72819.94
2022-09-12T06:08:41.523Z,72817.94
2022-09-12T06:09:17.291Z,72819.94
2022-09-12T06:09:49.485Z,72819.94
2022-09-12T06:10:23.143Z,72819.94
2022-09-12T06:11:02.545Z,72817.94
2022-09-12T06:11:37.419Z,72815.97
2022-09-12T06:12:09.650Z,72813.97
2022-09-12T06:12:44.572Z,72817.94
2022-09-12T06:13:16.842Z,72813.97
2022-09-12T06:13:49.414Z,72811.97
2022-09-12T06:14:24.485Z,72817.94
2022-09-12T06:14:56.982Z,72817.94
2022-09-12T06:15:29.190Z,72815.97
2022-09-12T06:16:06.353Z,72813.97
2022-09-12T06:16:41.807Z,72811.97
2022-09-12T06:17:14.493Z,72811.97
2022-09-12T06:17:51.378Z,72815.97
2022-09-12T06:18:26.413Z,72817.94
2022-09-12T06:19:00.550Z,72817.94
2022-09-12T06:19:35.369Z,72817.94
2022-09-12T06:20:08.657Z,72813.97
2022-09-12T06:20:40.857Z,72815.97
2022-09-12T06:21:15.793Z,72819.94
2022-09-12T06:21:51.706Z,72821.94
2022-09-12T06:22:24.015Z,72821.94
2022-09-12T06:22:58.942Z,72821.94
2022-09-12T06:23:31.165Z,72821.94
2022-09-12T06:24:06.580Z,72821.94
2022-09-12T06:24:38.833Z,72817.94
2022-09-12T06:25:11.060Z,72821.94
2022-09-12T06:25:52.346Z,72819.94
2022-09-12T06:26:25.795Z,72817.94
2022-09-12T06:27:02.411Z,72821.94
2022-09-12T06:27:34.674Z,72817.94
2022-09-12T06:28:06.901Z,72817.94
2022-09-12T06:28:42.962Z,72817.94
2022-09-12T06:29:15.830Z,72817.94
2022-09-12T06:29:48.054Z,72817.94
2022-09-12T06:30:25.440Z,72821.94
2022-09-12T06:31:02.895Z,72819.94
2022-09-12T06:31:36.681Z,72817.94
2022-09-12T06:32:11.709Z,72821.94
2022-09-12T06:32:43.950Z,72821.94
2022-09-12T06:33:16.245Z,72817.94
2022-09-12T06:33:52.286Z,72817.94
2022-09-12T06:34:24.513Z,72819.94
2022-09-12T06:34:57.652Z,72819.94
2022-09-12T06:35:32.460Z,72817.94
2022-09-12T06:36:11.540Z,72815.97
2022-09-12T06:36:48.068Z,72813.97
2022-09-12T06:37:22.879Z,72821.94
2022-09-12T06:37:55.513Z,72811.97
2022-09-12T06:38:30.328Z,72817.94
2022-09-12T06:39:04.424Z,72817.94
2022-09-12T06:39:39.336Z,72813.97
2022-09-12T06:40:12.545Z,72819.94
2022-09-12T06:40:44.854Z,72813.97
2022-09-12T06:41:19.673Z,72817.94
2022-09-12T06:41:52.578Z,72817.94
2022-09-12T06:42:40.924Z,72821.94
2022-09-12T06:43:14.149Z,72819.94
2022-09-12T06:43:46.452Z,72817.94
2022-09-12T06:44:22.577Z,72817.94
2022-09-12T06:44:54.824Z,72821.94
2022-09-12T06:45:27.059Z,72823.94
2022-09-12T06:46:02.240Z,72821.94
2022-09-12T06:46:34.517Z,72821.94
2022-09-12T06:47:09.552Z,72825.94
2022-09-12T06:47:41.751Z,72825.94
2022-09-12T06:48:13.982Z,72821.94
2022-09-12T06:48:49.150Z,72825.94
2022-09-12T06:49:21.465Z,72825.94
2022-09-12T06:49:53.685Z,72829.94
2022-09-12T06:50:28.524Z,72825.94
2022-09-12T06:51:02.266Z,72825.94
2022-09-12T06:51:36.377Z,72825.94
2022-09-12T06:52:11.199Z,72823.94
2022-09-12T06:52:46.071Z,72825.94
2022-09-12T06:53:18.294Z,72825.94
2022-09-12T06:53:53.494Z,72823.94
2022-09-12T06:54:26.581Z,72825.94
2022-09-12T06:55:01.398Z,72825.94
2022-09-12T06:55:34.010Z,72821.94
2022-09-12T06:56:07.759Z,72825.94
2022-09-12T06:56:42.592Z,72825.94
2022-09-12T06:57:14.845Z,72821.94
2022-09-12T06:57:47.041Z,72821.94
2022-09-12T06:58:21.869Z,72821.94